createdAt,value
2018-01-12T00:01:31.376Z,25.83
2018-01-12T00:03:59.783Z,28.08
2018-01-12T00:06:27.397Z,30.80
2018-01-12T00:08:55.007Z,29.73
2018-01-12T00:11:22.655Z,29.50
2018-01-12T00:13:51.046Z,30.70
2018-01-12T00:16:19.472Z,31.37
2018-01-12T00:18:47.113Z,33.10
2018-01-12T00:21:14.754Z,32.30
2018-01-12T00:23:43.121Z,31.70
2018-01-12T00:26:11.536Z,31.70
2018-01-12T00:28:39.952Z,31.85
2018-01-12T00:31:07.536Z,32.70
2018-01-12T00:33:35.139Z,33.67
2018-01-12T00:36:03.539Z,32.53
2018-01-12T00:38:31.174Z,34.42
2018-01-12T00:40:58.826Z,32.65
2018-01-12T00:43:26.447Z,33.97
2018-01-12T00:45:54.083Z,32.53
2018-01-12T00:48:22.484Z,35.55
2018-01-12T00:50:50.890Z,31.65
2018-01-12T00:53:18.516Z,30.58
2018-01-12T00:55:46.896Z,33.33
2018-01-12T00:58:14.525Z,33.95
2018-01-12T01:00:42.147Z,34.75
2018-01-12T01:03:10.524Z,32.13
2018-01-12T01:05:38.157Z,29.65
2018-01-12T01:08:05.802Z,31.23
2018-01-12T01:10:33.394Z,31.20
2018-01-12T01:13:01.048Z,32.22
2018-01-12T01:15:28.653Z,32.28
2018-01-12T01:17:57.034Z,29.52
2018-01-12T01:20:25.393Z,28.40
2018-01-12T01:22:53.020Z,28.52
2018-01-12T01:25:20.643Z,31.77
2018-01-12T01:27:49.048Z,28.23
2018-01-12T01:30:17.449Z,28.00
2018-01-12T01:32:45.030Z,29.48
2018-01-12T01:35:12.667Z,28.62
2018-01-12T01:37:40.267Z,27.65
2018-01-12T01:40:07.899Z,26.40
2018-01-12T01:42:35.504Z,26.98
2018-01-12T01:45:03.117Z,28.27
2018-01-12T01:47:31.471Z,25.10
2018-01-12T01:49:59.071Z,26.05
2018-01-12T01:52:27.474Z,27.83
2018-01-12T01:54:55.072Z,27.42
2018-01-12T01:57:22.683Z,27.42
2018-01-12T01:59:51.040Z,25.73
2018-01-12T02:02:18.681Z,27.87
2018-01-12T02:04:46.276Z,28.90
2018-01-12T02:07:13.910Z,28.42
2018-01-12T02:09:41.490Z,29.25
2018-01-12T02:12:09.092Z,25.45
2018-01-12T02:14:36.732Z,26.40
2018-01-12T02:17:04.340Z,26.15
2018-01-12T02:19:32.324Z,27.73
2018-01-12T02:21:59.918Z,29.92
2018-01-12T02:24:27.514Z,26.52
2018-01-12T02:26:55.929Z,30.23
2018-01-12T02:29:23.581Z,29.35
2018-01-12T02:31:51.955Z,29.60
2018-01-12T02:34:20.341Z,30.48
2018-01-12T02:36:48.732Z,32.03
2018-01-12T02:39:17.106Z,28.20
2018-01-12T02:41:47.512Z,29.23
2018-01-12T02:44:15.137Z,29.65
2018-01-12T02:46:42.739Z,30.05
2018-01-12T02:49:10.353Z,29.55
2018-01-12T02:51:37.967Z,27.40
2018-01-12T02:54:05.594Z,27.70
2018-01-12T02:56:33.182Z,27.05
2018-01-12T02:59:00.767Z,25.52
2018-01-12T03:01:28.395Z,27.67
2018-01-12T03:03:57.032Z,26.70
2018-01-12T03:06:24.681Z,25.05
2018-01-12T03:08:52.284Z,28.05
2018-01-12T03:11:20.696Z,28.40
2018-01-12T03:13:48.304Z,28.73
2018-01-12T03:16:15.933Z,31.30
2018-01-12T03:18:43.554Z,28.42
2018-01-12T03:21:11.150Z,31.15
2018-01-12T03:23:39.534Z,31.77
2018-01-12T03:26:07.135Z,30.67
2018-01-12T03:28:34.743Z,30.88
2018-01-12T03:31:03.136Z,25.35
2018-01-12T03:33:30.751Z,31.55
2018-01-12T03:35:58.366Z,30.10
2018-01-12T03:38:25.972Z,31.12
2018-01-12T03:40:53.577Z,30.00
2018-01-12T03:43:21.210Z,27.40
2018-01-12T03:45:48.797Z,31.05
2018-01-12T03:48:16.431Z,29.00
2018-01-12T03:50:44.105Z,33.05
2018-01-12T03:53:11.732Z,30.73
2018-01-12T03:55:40.126Z,30.80
2018-01-12T03:58:07.757Z,30.20
2018-01-12T04:00:35.360Z,31.87
2018-01-12T04:03:03.748Z,28.23
2018-01-12T04:05:31.364Z,33.10
2018-01-12T04:07:58.971Z,32.47
2018-01-12T04:10:27.330Z,33.95
2018-01-12T04:12:54.959Z,33.42
2018-01-12T04:15:22.600Z,32.20
2018-01-12T04:17:50.224Z,30.62
2018-01-12T04:20:17.857Z,29.52
2018-01-12T04:22:45.472Z,23.30
2018-01-12T04:25:13.832Z,22.75
2018-01-12T04:27:42.419Z,23.15
2018-01-12T04:30:10.028Z,23.50
2018-01-12T04:32:37.687Z,21.05
2018-01-12T04:35:05.300Z,21.80
2018-01-12T04:37:33.743Z,21.90
2018-01-12T04:40:01.344Z,24.50
2018-01-12T04:42:28.966Z,23.25
2018-01-12T04:44:56.569Z,22.02
2018-01-12T04:47:24.190Z,21.73
2018-01-12T04:49:51.820Z,20.05
2018-01-12T04:52:19.397Z,23.00
2018-01-12T04:54:47.023Z,24.33
2018-01-12T04:57:21.037Z,21.70
2018-01-12T04:59:55.620Z,21.12
2018-01-12T05:02:23.990Z,22.48
2018-01-12T05:04:52.371Z,25.17
2018-01-12T05:07:20.777Z,21.85
2018-01-12T05:09:48.441Z,25.20
2018-01-12T05:12:16.832Z,22.48
2018-01-12T05:14:45.170Z,21.40
2018-01-12T05:17:14.357Z,21.67
2018-01-12T05:19:41.985Z,22.55
2018-01-12T05:22:09.682Z,23.23
2018-01-12T05:24:37.287Z,23.27
2018-01-12T05:27:04.901Z,21.42
2018-01-12T05:29:32.549Z,23.42
2018-01-12T05:32:00.955Z,24.33
2018-01-12T05:34:28.591Z,22.15
2018-01-12T05:36:56.200Z,22.10
2018-01-12T05:39:23.803Z,24.75
2018-01-12T05:41:51.432Z,20.73
2018-01-12T05:44:19.025Z,20.77
2018-01-12T05:46:46.646Z,26.95
2018-01-12T05:49:15.270Z,24.17
2018-01-12T05:51:42.959Z,21.70
2018-01-12T05:54:10.565Z,26.77
2018-01-12T05:56:38.202Z,25.62
2018-01-12T05:59:06.564Z,22.70
2018-01-12T06:01:46.100Z,24.37
2018-01-12T06:04:25.533Z,23.83
2018-01-12T06:06:53.145Z,24.00
2018-01-12T06:09:20.773Z,27.10
2018-01-12T06:11:48.381Z,25.50
2018-01-12T06:14:15.970Z,27.20
2018-01-12T06:16:43.612Z,26.75
2018-01-12T06:19:11.219Z,29.17
2018-01-12T06:21:38.835Z,26.40
2018-01-12T06:24:06.444Z,22.95
2018-01-12T06:26:34.050Z,25.60
2018-01-12T06:29:02.408Z,24.30
2018-01-12T06:31:30.046Z,23.20
2018-01-12T06:33:57.665Z,26.80
2018-01-12T06:36:26.063Z,25.42
2018-01-12T06:38:53.714Z,23.40
2018-01-12T06:41:22.105Z,26.33
2018-01-12T06:43:49.736Z,29.67
2018-01-12T06:46:17.696Z,25.92
2018-01-12T06:48:45.329Z,24.30
2018-01-12T06:51:12.959Z,29.15
2018-01-12T06:53:40.558Z,29.58
2018-01-12T06:56:08.162Z,29.40
2018-01-12T06:58:35.741Z,24.42
2018-01-12T07:01:03.389Z,23.67
2018-01-12T07:03:31.000Z,24.27
2018-01-12T07:05:59.351Z,24.67
2018-01-12T07:08:26.960Z,24.73
2018-01-12T07:10:55.319Z,21.87
2018-01-12T07:13:22.953Z,26.00
2018-01-12T07:15:50.551Z,24.02
2018-01-12T07:18:18.149Z,21.30
2018-01-12T07:20:57.745Z,22.25
2018-01-12T07:23:37.326Z,22.35
2018-01-12T07:26:04.951Z,22.37
2018-01-12T07:28:32.650Z,23.77
2018-01-12T07:31:00.998Z,25.58
2018-01-12T07:33:28.593Z,22.65
2018-01-12T07:35:58.242Z,21.70
2018-01-12T07:38:25.851Z,21.75
2018-01-12T07:40:53.493Z,22.40
2018-01-12T07:43:21.130Z,24.30
2018-01-12T07:45:48.785Z,21.42
2018-01-12T07:48:16.405Z,21.92
2018-01-12T07:50:44.004Z,23.17
2018-01-12T07:53:17.979Z,23.10
2018-01-12T07:55:45.566Z,19.35
2018-01-12T07:58:14.049Z,21.35
2018-01-12T08:00:47.983Z,23.42
2018-01-12T08:03:15.607Z,22.65
2018-01-12T08:05:43.204Z,24.55
2018-01-12T08:08:11.605Z,22.60
2018-01-12T08:10:39.255Z,22.90
2018-01-12T08:13:07.604Z,21.55
2018-01-12T08:15:36.206Z,20.88
2018-01-12T08:18:03.821Z,23.55
2018-01-12T08:20:31.413Z,21.90
2018-01-12T08:22:59.015Z,23.90
2018-01-12T08:25:27.416Z,20.98
2018-01-12T08:27:55.025Z,18.75
2018-01-12T08:30:22.612Z,16.70
2018-01-12T08:32:50.280Z,19.83
2018-01-12T08:35:17.919Z,17.30
2018-01-12T08:37:45.563Z,18.12
2018-01-12T08:40:13.154Z,18.20
2018-01-12T08:42:40.784Z,16.67
2018-01-12T08:45:08.399Z,16.55
2018-01-12T08:47:35.994Z,15.52
2018-01-12T08:50:04.417Z,15.40
2018-01-12T08:52:33.376Z,17.85
2018-01-12T08:55:01.621Z,17.02
2018-01-12T08:57:29.282Z,17.50
2018-01-12T08:59:56.885Z,14.77
2018-01-12T09:02:25.259Z,15.57
2018-01-12T09:04:53.636Z,16.12
2018-01-12T09:07:21.243Z,14.73
2018-01-12T09:09:48.878Z,15.73
2018-01-12T09:12:17.271Z,14.68
2018-01-12T09:14:50.704Z,15.55
2018-01-12T09:17:30.290Z,14.75
2018-01-12T09:20:09.695Z,16.35
2018-01-12T09:22:46.233Z,13.05
2018-01-12T09:25:23.676Z,14.68
2018-01-12T09:27:51.266Z,12.40
2018-01-12T09:30:19.686Z,14.35
2018-01-12T09:32:50.140Z,15.07
2018-01-12T09:35:17.785Z,14.35
2018-01-12T09:37:45.447Z,16.62
2018-01-12T09:40:40.803Z,12.52
2018-01-12T09:43:09.182Z,18.55
2018-01-12T09:45:37.560Z,13.57
2018-01-12T09:48:17.165Z,14.55
2018-01-12T09:50:44.801Z,13.75
2018-01-12T09:53:12.454Z,13.75
2018-01-12T09:55:40.891Z,13.50
2018-01-12T09:58:08.510Z,13.43
2018-01-12T10:00:42.627Z,13.60
2018-01-12T10:03:10.231Z,12.98
2018-01-12T10:05:37.828Z,11.60
2018-01-12T10:08:05.510Z,13.25
2018-01-12T10:10:33.948Z,11.02
2018-01-12T10:13:01.591Z,12.07
2018-01-12T10:15:29.228Z,12.25
2018-01-12T10:17:59.356Z,10.60
2018-01-12T10:20:37.816Z,10.50
2018-01-12T10:23:05.428Z,11.80
2018-01-12T10:25:33.055Z,12.05
2018-01-12T10:28:00.650Z,11.43
2018-01-12T10:30:58.455Z,12.90
2018-01-12T10:33:48.774Z,11.65
2018-01-12T10:36:21.128Z,11.50
2018-01-12T10:39:03.672Z,12.57
2018-01-12T10:41:37.216Z,12.75
2018-01-12T10:44:04.834Z,12.27
2018-01-12T10:46:44.208Z,13.20
2018-01-12T10:49:37.617Z,12.48
2018-01-12T10:52:06.176Z,14.02
2018-01-12T10:54:33.834Z,13.35
2018-01-12T10:57:01.449Z,14.60
2018-01-12T10:59:29.835Z,13.55
2018-01-12T11:01:57.499Z,14.80
2018-01-12T11:04:25.884Z,12.02
2018-01-12T11:06:54.271Z,13.10
2018-01-12T11:09:22.672Z,12.15
2018-01-12T11:11:51.381Z,12.18
2018-01-12T11:14:21.646Z,11.12
2018-01-12T11:16:50.137Z,11.82
2018-01-12T11:19:18.952Z,11.23
2018-01-12T11:21:46.748Z,11.82
2018-01-12T11:24:14.395Z,10.80
2018-01-12T11:26:42.776Z,12.90
2018-01-12T11:29:11.153Z,13.05
2018-01-12T11:31:39.549Z,14.02
2018-01-12T11:34:07.949Z,11.40
2018-01-12T11:36:35.550Z,12.23
2018-01-12T11:39:03.205Z,11.63
2018-01-12T11:41:31.615Z,11.50
2018-01-12T11:43:59.227Z,10.48
2018-01-12T11:46:26.835Z,11.60
2018-01-12T11:48:54.449Z,11.95
2018-01-12T11:51:22.085Z,12.37
2018-01-12T11:53:49.680Z,13.50
2018-01-12T11:56:17.313Z,11.60
2018-01-12T11:58:44.924Z,13.98
2018-01-12T12:01:13.315Z,14.23
2018-01-12T12:03:40.937Z,13.93
2018-01-12T12:06:08.602Z,12.02
2018-01-12T12:08:36.348Z,13.35
2018-01-12T12:11:03.985Z,12.60
2018-01-12T12:13:31.624Z,12.20
2018-01-12T12:16:00.036Z,12.23
2018-01-12T12:18:27.645Z,11.95
2018-01-12T12:20:55.250Z,12.55
2018-01-12T12:23:25.516Z,11.38
2018-01-12T12:25:54.448Z,13.00
2018-01-12T12:28:22.856Z,13.82
2018-01-12T12:30:53.195Z,12.43
2018-01-12T12:33:20.949Z,12.73
2018-01-12T12:35:49.295Z,15.40
2018-01-12T12:38:16.925Z,15.73
2018-01-12T12:40:44.559Z,12.50
2018-01-12T12:43:12.970Z,14.68
2018-01-12T12:45:40.603Z,15.20
2018-01-12T12:48:09.018Z,13.70
2018-01-12T12:50:36.640Z,13.62
2018-01-12T12:53:04.996Z,11.48
2018-01-12T12:55:32.680Z,12.10
2018-01-12T12:58:00.268Z,13.73
2018-01-12T13:00:28.660Z,10.30
2018-01-12T13:02:57.026Z,11.93
2018-01-12T13:05:26.115Z,13.20
2018-01-12T13:07:53.782Z,11.38
2018-01-12T13:10:21.379Z,11.38
2018-01-12T13:12:49.033Z,11.55
2018-01-12T13:15:16.748Z,11.25
2018-01-12T13:17:44.361Z,11.30
2018-01-12T13:20:12.776Z,10.98
2018-01-12T13:22:40.453Z,12.40
2018-01-12T13:25:08.057Z,10.80
2018-01-12T13:27:38.748Z,12.65
2018-01-12T13:30:06.518Z,12.73
2018-01-12T13:32:34.140Z,11.75
2018-01-12T13:35:01.775Z,11.98
2018-01-12T13:37:29.394Z,10.95
2018-01-12T13:39:57.174Z,11.95
2018-01-12T13:42:24.749Z,12.23
2018-01-12T13:44:52.395Z,13.05
2018-01-12T13:47:20.760Z,12.10
2018-01-12T13:49:48.423Z,11.88
2018-01-12T13:52:16.046Z,11.00
2018-01-12T13:54:51.005Z,12.20
2018-01-12T13:57:18.704Z,11.50
2018-01-12T13:59:46.340Z,11.75
2018-01-12T14:02:13.929Z,12.25
2018-01-12T14:04:41.563Z,11.20
2018-01-12T14:07:09.196Z,11.50
2018-01-12T14:09:36.817Z,11.05
2018-01-12T14:12:04.505Z,11.43
2018-01-12T14:14:32.866Z,10.68
2018-01-12T14:17:00.461Z,12.65
2018-01-12T14:19:28.837Z,11.77
2018-01-12T14:21:57.203Z,11.07
2018-01-12T14:24:25.987Z,13.32
2018-01-12T14:26:53.754Z,11.15
2018-01-12T14:29:21.402Z,11.90
2018-01-12T14:31:49.118Z,11.98
2018-01-12T14:34:16.852Z,11.82
2018-01-12T14:36:44.707Z,11.73
2018-01-12T14:39:14.283Z,11.82
2018-01-12T14:41:43.830Z,10.95
2018-01-12T14:44:14.511Z,12.40
2018-01-12T14:46:45.149Z,12.30
2018-01-12T14:49:15.015Z,11.18
2018-01-12T14:51:45.788Z,12.40
2018-01-12T14:54:21.503Z,10.48
2018-01-12T14:56:49.681Z,12.80
2018-01-12T14:59:18.129Z,10.65
2018-01-12T15:01:45.741Z,11.70
2018-01-12T15:04:13.838Z,11.07
2018-01-12T15:06:41.464Z,11.50
2018-01-12T15:09:09.310Z,12.93
2018-01-12T15:11:37.034Z,13.38
2018-01-12T15:14:05.488Z,11.40
2018-01-12T15:16:33.382Z,11.15
2018-01-12T15:19:05.481Z,12.57
2018-01-12T15:21:34.438Z,11.55
2018-01-12T15:24:02.254Z,11.98
2018-01-12T15:26:30.126Z,10.90
2018-01-12T15:28:58.697Z,11.77
2018-01-12T15:31:27.287Z,11.43
2018-01-12T15:33:55.862Z,12.93
2018-01-12T15:36:23.694Z,11.95
2018-01-12T15:38:52.250Z,11.05
2018-01-12T15:41:19.886Z,12.55
2018-01-12T15:43:47.684Z,12.95
2018-01-12T15:46:15.436Z,13.82
2018-01-12T15:48:43.238Z,13.40
2018-01-12T15:51:11.009Z,12.90
2018-01-12T15:53:38.740Z,11.65
2018-01-12T15:56:06.536Z,12.73
2018-01-12T15:58:39.041Z,12.90
2018-01-12T16:01:08.488Z,13.38
2018-01-12T16:03:36.841Z,12.15
2018-01-12T16:06:04.822Z,12.68
2018-01-12T16:08:32.515Z,13.48
2018-01-12T16:11:00.112Z,13.25
2018-01-12T16:13:28.491Z,13.38
2018-01-12T16:15:56.893Z,15.43
2018-01-12T16:18:24.696Z,15.60
2018-01-12T16:20:53.392Z,13.23
2018-01-12T16:23:22.659Z,14.25
2018-01-12T16:25:50.614Z,14.23
2018-01-12T16:28:19.730Z,21.05
2018-01-12T16:30:47.744Z,15.35
2018-01-12T16:33:15.653Z,15.10
2018-01-12T16:35:44.277Z,14.82
2018-01-12T16:38:11.913Z,16.75
2018-01-12T16:40:40.289Z,19.42
2018-01-12T16:43:08.717Z,20.10
2018-01-12T16:45:36.397Z,19.02
2018-01-12T16:48:05.076Z,19.87
2018-01-12T16:50:32.681Z,20.30
2018-01-12T16:53:00.418Z,21.42
2018-01-12T16:55:28.209Z,19.85
2018-01-12T16:57:55.876Z,19.92
2018-01-12T17:00:23.498Z,21.30
2018-01-12T17:02:51.136Z,23.00
2018-01-12T17:05:18.726Z,21.73
2018-01-12T17:07:46.519Z,21.45
2018-01-12T17:10:16.387Z,21.58
2018-01-12T17:12:44.784Z,24.00
2018-01-12T17:15:13.308Z,24.37
2018-01-12T17:17:41.137Z,23.62
2018-01-12T17:20:08.791Z,23.85
2018-01-12T17:22:36.411Z,23.85
2018-01-12T17:25:04.445Z,23.62
2018-01-12T17:27:32.355Z,24.40
2018-01-12T17:30:00.197Z,23.87
2018-01-12T17:32:28.824Z,22.27
2018-01-12T17:34:56.618Z,23.77
2018-01-12T17:37:24.436Z,25.70
2018-01-12T17:39:52.177Z,25.05
2018-01-12T17:42:20.261Z,25.98
2018-01-12T17:44:48.291Z,23.50
2018-01-12T17:47:16.204Z,25.65
2018-01-12T17:49:46.100Z,26.65
2018-01-12T17:52:14.493Z,26.15
2018-01-12T17:54:43.201Z,25.25
2018-01-12T17:57:10.896Z,24.90
2018-01-12T17:59:38.772Z,24.98
2018-01-12T18:02:07.720Z,26.40
2018-01-12T18:04:35.613Z,26.33
2018-01-12T18:07:03.344Z,25.98
2018-01-12T18:09:31.180Z,26.30
2018-01-12T18:11:58.896Z,27.25
2018-01-12T18:14:27.306Z,27.90
2018-01-12T18:16:55.899Z,24.42
2018-01-12T18:19:23.519Z,24.87
2018-01-12T18:21:51.317Z,26.30
2018-01-12T18:24:19.900Z,22.60
2018-01-12T18:26:48.100Z,22.62
2018-01-12T18:29:16.555Z,14.30
2018-01-12T18:31:44.201Z,15.82
2018-01-12T18:34:11.805Z,15.95
2018-01-12T18:36:40.684Z,17.92
2018-01-12T18:39:09.373Z,17.58
2018-01-12T18:41:37.950Z,15.82
2018-01-12T18:44:05.776Z,17.02
2018-01-12T18:46:34.116Z,15.77
2018-01-12T18:49:04.259Z,17.90
2018-01-12T18:51:33.162Z,16.87
2018-01-12T18:54:00.808Z,17.40
2018-01-12T18:56:30.852Z,16.08
2018-01-12T18:58:58.511Z,16.08
2018-01-12T19:01:27.929Z,16.40
2018-01-12T19:03:55.547Z,15.63
2018-01-12T19:06:23.463Z,15.35
2018-01-12T19:08:51.694Z,15.90
2018-01-12T19:11:19.384Z,15.07
2018-01-12T19:13:47.808Z,18.37
2018-01-12T19:16:15.431Z,13.45
2018-01-12T19:18:43.070Z,20.67
2018-01-12T19:21:10.671Z,20.92
2018-01-12T19:23:38.280Z,18.62
2018-01-12T19:26:06.252Z,17.10
2018-01-12T19:28:33.900Z,15.95
2018-01-12T19:31:01.539Z,17.05
2018-01-12T19:33:29.917Z,17.77
2018-01-12T19:35:57.541Z,18.05
2018-01-12T19:38:25.204Z,17.45
2018-01-12T19:40:52.857Z,17.08
2018-01-12T19:43:21.598Z,14.65
2018-01-12T19:45:49.890Z,16.85
2018-01-12T19:48:18.052Z,18.30
2018-01-12T19:50:47.645Z,16.45
2018-01-12T19:53:15.510Z,15.10
2018-01-12T19:55:43.364Z,16.80
2018-01-12T19:58:11.734Z,15.60
2018-01-12T20:00:40.499Z,16.05
2018-01-12T20:03:08.363Z,18.62
2018-01-12T20:05:36.866Z,16.48
2018-01-12T20:08:05.330Z,15.80
2018-01-12T20:10:32.950Z,16.95
2018-01-12T20:13:00.983Z,17.60
2018-01-12T20:15:28.821Z,15.38
2018-01-12T20:17:56.688Z,15.18
2018-01-12T20:20:26.028Z,17.65
2018-01-12T20:22:53.781Z,16.55
2018-01-12T20:25:21.425Z,14.18
2018-01-12T20:27:49.101Z,16.95
2018-01-12T20:30:16.702Z,18.00
2018-01-12T20:32:44.607Z,19.42
2018-01-12T20:35:12.887Z,17.60
2018-01-12T20:37:41.527Z,19.42
2018-01-12T20:40:11.141Z,16.42
2018-01-12T20:42:39.067Z,15.85
2018-01-12T20:45:06.905Z,18.27
2018-01-12T20:47:36.446Z,17.10
2018-01-12T20:50:04.196Z,37.22
2018-01-12T20:52:32.890Z,17.33
2018-01-12T20:55:00.687Z,18.17
2018-01-12T20:57:29.097Z,17.95
2018-01-12T20:59:58.445Z,17.35
2018-01-12T21:02:26.233Z,19.02
2018-01-12T21:04:54.239Z,19.50
2018-01-12T21:07:23.088Z,21.15
2018-01-12T21:09:50.822Z,21.55
2018-01-12T21:12:18.684Z,21.45
2018-01-12T21:14:46.688Z,22.50
2018-01-12T21:17:15.243Z,21.95
2018-01-12T21:19:44.844Z,21.65
2018-01-12T21:22:12.759Z,21.20
2018-01-12T21:24:40.674Z,18.92
2018-01-12T21:27:10.584Z,17.17
2018-01-12T21:29:39.995Z,16.60
2018-01-12T21:32:08.303Z,15.13
2018-01-12T21:34:38.341Z,14.45
2018-01-12T21:37:06.115Z,15.77
2018-01-12T21:39:34.013Z,12.50
2018-01-12T21:42:01.682Z,15.65
2018-01-12T21:44:30.097Z,15.48
2018-01-12T21:46:57.758Z,14.77
2018-01-12T21:49:25.523Z,16.20
2018-01-12T21:51:53.208Z,12.65
2018-01-12T21:54:21.725Z,13.77
2018-01-12T21:56:49.406Z,13.77
2018-01-12T21:59:17.365Z,13.82
2018-01-12T22:01:45.499Z,12.35
2018-01-12T22:04:13.230Z,14.25
2018-01-12T22:06:41.686Z,14.00
2018-01-12T22:09:09.633Z,14.18
2018-01-12T22:11:38.320Z,16.98
2018-01-12T22:14:07.207Z,17.95
2018-01-12T22:16:34.859Z,15.75
2018-01-12T22:19:03.268Z,16.05
2018-01-12T22:21:30.921Z,15.95
2018-01-12T22:24:01.890Z,16.20
2018-01-12T22:26:29.714Z,16.10
2018-01-12T22:28:57.317Z,16.08
2018-01-12T22:31:25.163Z,15.75
2018-01-12T22:33:53.540Z,16.40
2018-01-12T22:36:21.903Z,15.45
2018-01-12T22:38:49.550Z,15.88
2018-01-12T22:41:17.162Z,15.95
2018-01-12T22:43:45.679Z,16.08
2018-01-12T22:46:13.334Z,16.45
2018-01-12T22:48:41.173Z,15.95
2018-01-12T22:51:08.884Z,13.85
2018-01-12T22:53:36.516Z,15.70
2018-01-12T22:56:04.908Z,16.40
2018-01-12T22:58:42.993Z,15.77
2018-01-12T23:01:10.709Z,16.05
2018-01-12T23:03:38.648Z,14.43
2018-01-12T23:06:06.383Z,13.88
2018-01-12T23:08:34.741Z,14.45
2018-01-12T23:11:02.460Z,13.95
2018-01-12T23:13:30.834Z,16.37
2018-01-12T23:15:59.214Z,15.02
2018-01-12T23:18:26.900Z,14.38
2018-01-12T23:20:55.311Z,14.57
2018-01-12T23:23:24.002Z,16.58
2018-01-12T23:25:51.763Z,15.90
2018-01-12T23:28:19.442Z,14.90
2018-01-12T23:30:47.129Z,17.02
2018-01-12T23:33:15.729Z,10.80
2018-01-12T23:35:43.438Z,12.23
2018-01-12T23:38:11.827Z,12.73
2018-01-12T23:40:40.339Z,12.57
2018-01-12T23:43:08.022Z,12.55
2018-01-12T23:45:35.791Z,15.27
2018-01-12T23:48:03.427Z,15.77
2018-01-12T23:50:31.052Z,16.17
2018-01-12T23:52:58.768Z,15.52
2018-01-12T23:55:26.470Z,14.73
2018-01-12T23:57:54.090Z,14.43
